Badpyt — FGF9772 — position and weather

sailwx.info

Track history (hours):
 
Tides and Currents Weather Stations Pressure Air Temp Water Temp Dewpoint Dewpoint Depression Visibility Wind Speed Wind Dir Waves Ship Positions

Badpyt

Last reported at 2017-Aug-19 12:02 UTC. Time now 2017-Nov-24 16:35 UTC.
Position N 47°22' W 002°39'.
Warning: this ship's position is months out of date.

Length 12 m.

Type: Sailing vessel. MMSI: 227775480.

Date/timePositionNaut miles runAvg speedWind from/ knotsBaromVisibWave heightAir tempDewpointWater temp
2017-Aug-19 12:02N 47°22' W 002°39'2 5.6
2017-Aug-19 11:45N 47°23' W 002°41'2 5.5
2017-Aug-19 11:26N 47°24' W 002°43'2 4.6
2017-Aug-19 10:57N 47°25' W 002°45'2 3.4
2017-Aug-19 10:30N 47°26' W 002°47'3 5.1
2017-Aug-19 10:00N 47°27' W 002°50'3 6.4
2017-Aug-19 09:30N 47°28' W 002°55'2 5.0
2017-Aug-19 09:00N 47°31' W 002°57'3 5.9
2017-Aug-19 08:30N 47°33' W 002°60'2 3.9
2017-Aug-19 08:00N 47°34' W 003°01'1 0.1
2017-Aug-18 13:56N 47°35' W 003°01'0 0.0
2017-Aug-18 13:29N 47°35' W 003°01'0 0.1
2017-Aug-18 13:00N 47°35' W 003°01'2 3.8
2017-Aug-18 12:30N 47°34' W 003°01'4 7.5
2017-Aug-18 11:59N 47°30' W 003°02'4 7.1
2017-Aug-18 11:28N 47°27' W 003°05'3 6.9
2017-Aug-18 11:00N 47°25' W 003°09'3 6.6
2017-Aug-18 10:30N 47°23' W 003°13'0 0.0
2017-Aug-16 17:55N 47°23' W 003°12'  
2017-Aug-14 08:21N 47°23' W 002°35'2 6.3
2017-Aug-14 08:00N 47°25' W 002°33'3 6.2
2017-Aug-14 07:30N 47°28' W 002°32'3 4.9
2017-Aug-14 06:52N 47°30' W 002°28'  
Track history (hours):
 
Tides and Currents Weather Stations Pressure Air Temp Water Temp Dewpoint Dewpoint Depression Visibility Wind Speed Wind Dir Waves Ship Positions

Badpyt

Last reported at 2017-Aug-19 12:02 UTC. Time now 2017-Nov-24 16:35 UTC.
Position N 47°22' W 002°39'.
Warning: this ship's position is months out of date.

Length 12 m.

Type: Sailing vessel. MMSI: 227775480.

Date/timePositionNaut miles runAvg speedWind from/ knotsBaromVisibWave heightAir tempDewpointWater temp
2017-Aug-19 12:02N 47°22' W 002°39'2 5.6
2017-Aug-19 11:45N 47°23' W 002°41'2 5.5
2017-Aug-19 11:26N 47°24' W 002°43'2 4.6
2017-Aug-19 10:57N 47°25' W 002°45'2 3.4
2017-Aug-19 10:30N 47°26' W 002°47'3 5.1
2017-Aug-19 10:00N 47°27' W 002°50'3 6.4
2017-Aug-19 09:30N 47°28' W 002°55'2 5.0
2017-Aug-19 09:00N 47°31' W 002°57'3 5.9
2017-Aug-19 08:30N 47°33' W 002°60'2 3.9
2017-Aug-19 08:00N 47°34' W 003°01'1 0.1
2017-Aug-18 13:56N 47°35' W 003°01'0 0.0
2017-Aug-18 13:29N 47°35' W 003°01'0 0.1
2017-Aug-18 13:00N 47°35' W 003°01'2 3.8
2017-Aug-18 12:30N 47°34' W 003°01'4 7.5
2017-Aug-18 11:59N 47°30' W 003°02'4 7.1
2017-Aug-18 11:28N 47°27' W 003°05'3 6.9
2017-Aug-18 11:00N 47°25' W 003°09'3 6.6
2017-Aug-18 10:30N 47°23' W 003°13'0 0.0
2017-Aug-16 17:55N 47°23' W 003°12'  
2017-Aug-14 08:21N 47°23' W 002°35'2 6.3
2017-Aug-14 08:00N 47°25' W 002°33'3 6.2
2017-Aug-14 07:30N 47°28' W 002°32'3 4.9
2017-Aug-14 06:52N 47°30' W 002°28'  

Dump ship's entire track history